Time;durP1;ratioP1;P1;durP2;ratioP2;P2;SDS_P1;SDS_P2;PMS_P1;PMS_P2;Temp;Humidity;BMP_temperature;BMP_pressure;BME280_temperature;BME280_humidity;BME280_pressure;Samples;Min_cycle;Max_cycle;Signal;HPM_P1;HPM_P2
2022/06/19 00:00:17;;;;;;;0.70;0.70;;;22.20;50.70;;;;;;6194492;28;20061;-74
2022/06/19 00:03:28;;;;;;;1.77;0.70;;;22.20;50.70;;;;;;6201207;28;20424;-74
2022/06/19 00:06:28;;;;;;;0.88;0.73;;;22.20;50.70;;;;;;6219447;28;20060;-74
2022/06/19 00:09:29;;;;;;;1.25;0.73;;;22.20;50.70;;;;;;6203309;28;20022;-74
2022/06/19 00:12:30;;;;;;;0.68;0.68;;;22.20;50.70;;;;;;6194658;28;20493;-74
2022/06/19 00:15:30;;;;;;;1.02;0.88;;;22.20;50.70;;;;;;6217664;28;20021;-74
2022/06/19 00:18:31;;;;;;;1.08;0.70;;;22.20;50.70;;;;;;6212412;28;20034;-74
2022/06/19 00:21:32;;;;;;;0.95;0.75;;;22.20;50.70;;;;;;6194180;28;20170;-73
2022/06/19 00:24:34;;;;;;;0.70;0.68;;;22.20;50.70;;;;;;6205037;28;20122;-74
2022/06/19 00:27:39;;;;;;;0.73;0.70;;;22.20;50.70;;;;;;6218781;28;20381;-74
2022/06/19 00:30:40;;;;;;;0.70;0.70;;;22.20;50.80;;;;;;6195832;28;20070;-74
2022/06/19 00:33:42;;;;;;;1.55;0.80;;;22.20;50.70;;;;;;6193985;28;20030;-74
2022/06/19 00:36:45;;;;;;;0.80;0.70;;;22.20;50.70;;;;;;6194057;28;20077;-73
2022/06/19 00:39:45;;;;;;;0.70;0.63;;;22.20;50.70;;;;;;6207322;28;20467;-74
2022/06/19 00:42:46;;;;;;;0.93;0.77;;;22.20;50.70;;;;;;6218495;28;20049;-74
2022/06/19 00:45:49;;;;;;;1.10;0.77;;;22.20;50.80;;;;;;6193568;28;20034;-73
2022/06/19 00:48:51;;;;;;;0.63;0.63;;;22.20;51.40;;;;;;6198820;28;20465;-73
2022/06/19 00:52:12;;;;;;;1.13;0.77;;;22.20;50.80;;;;;;6218508;28;20104;-73
2022/06/19 00:55:20;;;;;;;0.63;0.63;;;22.20;50.80;;;;;;6202882;28;20022;-73
2022/06/19 00:58:32;;;;;;;0.77;0.70;;;22.10;50.70;;;;;;6193564;28;20054;-74
2022/06/19 01:01:34;;;;;;;1.05;0.77;;;22.20;50.80;;;;;;6217967;28;20029;-73
2022/06/19 01:04:42;;;;;;;0.75;0.63;;;22.20;50.80;;;;;;6209071;28;20424;-74
2022/06/19 01:07:44;;;;;;;0.82;0.75;;;22.20;50.80;;;;;;6193347;28;20233;-74
2022/06/19 01:10:47;;;;;;;1.00;0.80;;;22.20;50.80;;;;;;6211000;28;20450;-73
2022/06/19 01:13:49;;;;;;;0.88;0.80;;;22.20;50.80;;;;;;6216430;28;20400;-73
2022/06/19 01:16:50;;;;;;;0.60;0.60;;;22.20;50.80;;;;;;6193158;28;20026;-74
2022/06/19 01:19:51;;;;;;;0.75;0.75;;;22.20;50.90;;;;;;6201478;28;20520;-74
2022/06/19 01:23:21;;;;;;;0.60;0.60;;;22.20;50.90;;;;;;6213579;28;20029;-74
2022/06/19 01:26:22;;;;;;;0.80;0.70;;;22.20;50.90;;;;;;6197371;28;20026;-74
2022/06/19 01:29:23;;;;;;;1.70;0.82;;;22.20;50.80;;;;;;6199159;28;20497;-74
2022/06/19 01:32:24;;;;;;;1.23;0.88;;;22.20;50.90;;;;;;6222246;28;20068;-74
2022/06/19 01:35:28;;;;;;;0.85;0.80;;;22.20;50.90;;;;;;6211135;28;20025;-73
2022/06/19 01:38:32;;;;;;;0.80;0.70;;;22.20;50.90;;;;;;6222518;28;20080;-73
2022/06/19 01:41:33;;;;;;;0.70;0.70;;;22.20;50.90;;;;;;6203037;28;20097;-74
2022/06/19 01:44:35;;;;;;;0.73;0.70;;;22.20;50.90;;;;;;6194716;28;20044;-74
2022/06/19 01:47:36;;;;;;;1.00;0.85;;;22.20;50.90;;;;;;6222308;28;20018;-74
2022/06/19 01:50:37;;;;;;;0.90;0.80;;;22.20;50.90;;;;;;6210858;28;20381;-74
2022/06/19 01:53:44;;;;;;;0.73;0.70;;;22.10;50.80;;;;;;6208675;28;20476;-74
2022/06/19 01:56:45;;;;;;;0.70;0.60;;;22.20;50.90;;;;;;6203259;28;20121;-74
2022/06/19 01:59:47;;;;;;;0.57;0.57;;;22.20;50.90;;;;;;6200808;28;20065;-74
2022/06/19 02:03:08;;;;;;;0.82;0.73;;;22.20;50.90;;;;;;6222024;28;20255;-74
2022/06/19 02:06:13;;;;;;;0.70;0.60;;;22.20;50.90;;;;;;6208078;28;20060;-74
2022/06/19 02:09:19;;;;;;;1.02;0.90;;;22.20;50.90;;;;;;6218845;28;20477;-74
2022/06/19 02:12:24;;;;;;;1.13;0.77;;;22.20;50.90;;;;;;6199714;28;20457;-74
2022/06/19 02:15:25;;;;;;;;;;;22.20;50.90;;;;;;6203962;28;20523;-74
2022/06/19 02:18:31;;;;;;;0.68;0.68;;;22.20;50.90;;;;;;6222459;28;19912;-74
2022/06/19 02:21:42;;;;;;;0.60;0.60;;;22.20;51.00;;;;;;6207174;28;20477;-74
2022/06/19 02:24:43;;;;;;;1.27;0.98;;;22.20;51.00;;;;;;6197532;28;20500;-74
2022/06/19 02:27:44;;;;;;;0.85;0.80;;;22.20;51.00;;;;;;6220329;28;20496;-73
2022/06/19 02:30:47;;;;;;;0.50;0.50;;;22.20;51.00;;;;;;6211483;28;20124;-74
2022/06/19 02:33:53;;;;;;;0.60;0.60;;;22.20;51.00;;;;;;6196968;28;20091;-74
2022/06/19 02:37:21;;;;;;;0.80;0.70;;;22.20;51.00;;;;;;6197341;28;20046;-74
2022/06/19 02:40:39;;;;;;;0.60;0.60;;;22.20;51.00;;;;;;6195666;28;20283;-74
2022/06/19 02:43:39;;;;;;;0.82;0.73;;;22.20;51.00;;;;;;6220894;28;20488;-74
2022/06/19 02:46:40;;;;;;;1.05;0.80;;;22.20;51.00;;;;;;6208876;28;20041;-74
2022/06/19 02:49:41;;;;;;;0.70;0.70;;;22.20;51.00;;;;;;6196653;28;20076;-74
2022/06/19 02:52:42;;;;;;;0.50;0.50;;;22.20;51.00;;;;;;6216259;28;20014;-74
2022/06/19 02:55:43;;;;;;;0.75;0.73;;;22.20;51.00;;;;;;6199757;28;20026;-74
2022/06/19 02:58:43;;;;;;;0.50;0.50;;;22.20;51.00;;;;;;6196488;28;20124;-74
2022/06/19 03:01:44;;;;;;;0.65;0.65;;;22.20;51.00;;;;;;6196069;28;20027;-74
2022/06/19 03:04:50;;;;;;;0.90;0.73;;;22.20;51.00;;;;;;6196089;28;20041;-74
2022/06/19 03:07:51;;;;;;;0.52;0.52;;;22.20;51.00;;;;;;6214529;28;20022;-74
2022/06/19 03:10:51;;;;;;;1.00;0.55;;;22.20;51.10;;;;;;6218149;28;20029;-74
2022/06/19 03:13:52;;;;;;;0.60;0.60;;;22.10;51.00;;;;;;6195807;28;20030;-74
2022/06/19 03:16:53;;;;;;;0.80;0.80;;;22.20;51.10;;;;;;6205493;28;20029;-74
2022/06/19 03:19:54;;;;;;;1.05;0.73;;;22.20;51.10;;;;;;6220504;28;20033;-74
2022/06/19 03:22:55;;;;;;;0.70;0.60;;;22.10;51.00;;;;;;6199475;28;20022;-74
2022/06/19 03:25:55;;;;;;;0.70;0.70;;;22.20;51.10;;;;;;6195050;28;20046;-74
2022/06/19 03:28:56;;;;;;;0.57;0.57;;;22.20;51.10;;;;;;6178535;28;20026;-74
2022/06/19 03:31:57;;;;;;;0.50;0.50;;;22.20;51.10;;;;;;6192566;28;20055;-75
2022/06/19 03:34:58;;;;;;;0.70;0.70;;;22.20;51.10;;;;;;6219623;28;20428;-74
2022/06/19 03:37:58;;;;;;;0.85;0.80;;;22.20;51.10;;;;;;6219683;28;20505;-74
2022/06/19 03:40:59;;;;;;;0.50;0.50;;;22.20;51.10;;;;;;6219621;28;20034;-74
2022/06/19 03:44:00;;;;;;;0.50;0.50;;;22.20;51.10;;;;;;6195878;28;20018;-74
2022/06/19 03:47:00;;;;;;;0.55;0.55;;;22.20;51.10;;;;;;6201496;28;20033;-74
2022/06/19 03:50:03;;;;;;;0.70;0.50;;;22.20;51.10;;;;;;6219104;28;20030;-74
2022/06/19 03:53:03;;;;;;;0.65;0.60;;;22.20;51.10;;;;;;6210249;28;20022;-74
2022/06/19 03:56:06;;;;;;;0.70;0.70;;;22.20;51.10;;;;;;6219373;28;20045;-74
2022/06/19 03:59:09;;;;;;;0.90;0.52;;;22.20;51.10;;;;;;6197032;28;20041;-74
2022/06/19 04:02:10;;;;;;;0.73;0.50;;;22.20;51.20;;;;;;6183216;28;20014;-74
2022/06/19 04:05:13;;;;;;;0.60;0.60;;;22.20;51.10;;;;;;6218829;28;20038;-74
2022/06/19 04:08:13;;;;;;;1.30;0.80;;;22.20;51.10;;;;;;6218773;28;20121;-74
2022/06/19 04:11:16;;;;;;;0.73;0.70;;;22.20;51.10;;;;;;6219595;28;20040;-74
2022/06/19 04:14:17;;;;;;;0.77;0.77;;;22.20;51.10;;;;;;6197411;28;20405;-74
2022/06/19 04:17:18;;;;;;;0.57;0.57;;;22.10;51.10;;;;;;6199040;28;20018;-74
2022/06/19 04:20:18;;;;;;;1.05;0.70;;;22.20;51.20;;;;;;6218455;28;20567;-74
2022/06/19 04:23:19;;;;;;;1.02;0.60;;;22.20;51.20;;;;;;6206322;28;20046;-74
2022/06/19 04:26:21;;;;;;;0.90;0.73;;;22.20;51.20;;;;;;6194291;28;20046;-73
2022/06/19 04:29:21;;;;;;;0.73;0.73;;;22.20;51.20;;;;;;6214623;28;20136;-74
2022/06/19 04:32:22;;;;;;;0.75;0.57;;;22.10;51.10;;;;;;6215008;28;20525;-74
2022/06/19 04:35:22;;;;;;;0.70;0.63;;;22.20;51.20;;;;;;6194061;28;20077;-74
2022/06/19 04:38:23;;;;;;;0.77;0.65;;;22.20;51.20;;;;;;6193978;28;20094;-74
2022/06/19 04:41:33;;;;;;;0.52;0.40;;;22.10;51.20;;;;;;6194480;28;20481;-74
2022/06/19 04:44:34;;;;;;;0.85;0.70;;;22.20;51.20;;;;;;6213654;28;20037;-74
2022/06/19 04:47:35;;;;;;;0.80;0.80;;;22.20;51.20;;;;;;6211456;28;20030;-74
2022/06/19 04:50:36;;;;;;;0.90;0.70;;;22.20;51.20;;;;;;6176752;28;20022;-74
2022/06/19 04:53:39;;;;;;;0.70;0.70;;;22.20;51.20;;;;;;6201020;28;20030;-74
2022/06/19 04:56:40;;;;;;;0.80;0.70;;;22.20;51.20;;;;;;6193599;28;20486;-73
2022/06/19 05:00:34;;;;;;;1.58;0.80;;;22.20;51.20;;;;;;6193056;28;20022;-74
2022/06/19 05:03:34;;;;;;;0.60;0.60;;;22.20;51.30;;;;;;6202744;28;20044;-74
2022/06/19 05:06:35;;;;;;;0.50;0.50;;;22.20;51.30;;;;;;6199955;28;20041;-74
2022/06/19 05:09:36;;;;;;;0.70;0.70;;;22.20;51.20;;;;;;6201329;28;20489;-74
2022/06/19 05:12:37;;;;;;;0.60;0.60;;;22.20;51.30;;;;;;6193466;28;20054;-74
2022/06/19 05:15:38;;;;;;;0.60;0.55;;;22.20;51.30;;;;;;6193719;28;20517;-74
2022/06/19 05:18:39;;;;;;;0.50;0.50;;;22.20;51.30;;;;;;6193572;28;20030;-74
2022/06/19 05:21:40;;;;;;;0.60;0.60;;;22.20;51.30;;;;;;6193377;28;20509;-74
2022/06/19 05:24:40;;;;;;;0.50;0.50;;;22.20;51.30;;;;;;6208582;28;20036;-74
2022/06/19 05:27:42;;;;;;;0.40;0.40;;;22.20;51.30;;;;;;6217563;28;20030;-74
2022/06/19 05:30:42;;;;;;;0.50;0.50;;;22.20;51.30;;;;;;6194548;28;20154;-74
2022/06/19 05:33:43;;;;;;;0.65;0.65;;;22.20;51.30;;;;;;6193313;28;20102;-74
2022/06/19 05:36:44;;;;;;;0.47;0.47;;;22.20;51.30;;;;;;6193452;28;20026;-74
2022/06/19 05:39:45;;;;;;;0.50;0.50;;;22.20;51.30;;;;;;6206657;28;20539;-74
2022/06/19 05:42:49;;;;;;;0.60;0.60;;;22.20;51.30;;;;;;6214460;28;20112;-74
2022/06/19 05:45:54;;;;;;;0.55;0.55;;;22.20;51.30;;;;;;6195993;28;20174;-74
2022/06/19 05:48:55;;;;;;;0.68;0.60;;;22.10;51.20;;;;;;6198439;28;20108;-74
2022/06/19 05:51:56;;;;;;;0.85;0.50;;;22.20;51.30;;;;;;6217154;28;20030;-74
2022/06/19 05:54:57;;;;;;;0.45;0.45;;;22.20;51.40;;;;;;6204316;28;20030;-74
2022/06/19 05:57:57;;;;;;;0.70;0.55;;;22.20;51.30;;;;;;6193050;28;20033;-74
2022/06/19 06:00:58;;;;;;;0.60;0.60;;;22.20;51.40;;;;;;6192881;28;20022;-74
2022/06/19 06:03:59;;;;;;;0.80;0.70;;;22.10;51.20;;;;;;6196947;28;20033;-74
2022/06/19 06:07:00;;;;;;;0.82;0.80;;;22.20;51.40;;;;;;6216787;28;20485;-74
2022/06/19 06:10:00;;;;;;;0.55;0.50;;;22.20;51.40;;;;;;6206163;28;20030;-74
2022/06/19 06:13:01;;;;;;;0.65;0.63;;;22.20;51.40;;;;;;6192984;28;20030;-74
2022/06/19 06:16:02;;;;;;;0.70;0.70;;;22.20;51.40;;;;;;6216132;28;20377;-74
2022/06/19 06:19:03;;;;;;;0.73;0.60;;;22.20;51.40;;;;;;6201408;28;20033;-74
2022/06/19 06:22:04;;;;;;;1.05;0.77;;;22.20;51.40;;;;;;6197805;28;20030;-74
2022/06/19 06:25:06;;;;;;;0.52;0.50;;;22.20;51.40;;;;;;6207232;28;20445;-74
2022/06/19 06:28:07;;;;;;;0.70;0.63;;;22.20;51.40;;;;;;6221631;28;20029;-74
2022/06/19 06:31:08;;;;;;;0.60;0.60;;;22.20;51.40;;;;;;6203856;28;20160;-74
2022/06/19 06:34:08;;;;;;;0.50;0.50;;;22.20;51.40;;;;;;6201859;28;20124;-74
2022/06/19 06:37:09;;;;;;;0.50;0.50;;;22.20;51.40;;;;;;6179561;28;20054;-74
2022/06/19 06:40:10;;;;;;;0.50;0.50;;;22.20;51.40;;;;;;6205490;28;20026;-74
2022/06/19 06:43:11;;;;;;;0.60;0.50;;;22.20;51.40;;;;;;6221295;28;20384;-74
2022/06/19 06:46:20;;;;;;;1.02;0.68;;;22.20;51.40;;;;;;6204469;28;20035;-74
2022/06/19 06:49:21;;;;;;;0.75;0.60;;;22.20;51.40;;;;;;6197570;28;20026;-74
2022/06/19 06:52:22;;;;;;;0.60;0.60;;;22.20;51.40;;;;;;6168497;28;20035;-74
2022/06/19 06:55:22;;;;;;;0.52;0.52;;;22.20;51.40;;;;;;6169008;28;20117;-74
2022/06/19 06:58:23;;;;;;;0.60;0.60;;;22.20;51.40;;;;;;6169068;28;20046;-74
2022/06/19 07:01:24;;;;;;;0.50;0.50;;;22.20;51.40;;;;;;6164427;28;20039;-74
2022/06/19 07:04:25;;;;;;;0.65;0.65;;;22.20;51.40;;;;;;6165759;28;20174;-74
2022/06/19 07:07:26;;;;;;;0.70;0.60;;;22.20;51.40;;;;;;6168957;28;20685;-74
2022/06/19 07:10:27;;;;;;;0.50;0.50;;;22.20;51.40;;;;;;6168820;28;20026;-74
2022/06/19 07:13:28;;;;;;;0.43;0.43;;;22.20;51.40;;;;;;6168806;28;20038;-74
2022/06/19 07:16:28;;;;;;;0.90;0.63;;;22.20;51.40;;;;;;6167363;28;20030;-74
2022/06/19 07:19:30;;;;;;;0.60;0.57;;;22.20;51.50;;;;;;6168595;28;20061;-74
2022/06/19 07:22:30;;;;;;;0.90;0.50;;;22.20;52.10;;;;;;6184444;28;20070;-74
2022/06/19 07:25:31;;;;;;;0.50;0.50;;;22.20;51.40;;;;;;6213957;28;20053;-74
2022/06/19 07:28:32;;;;;;;0.43;0.43;;;22.20;51.50;;;;;;6195289;28;20034;-74
2022/06/19 07:31:33;;;;;;;0.85;0.57;;;22.20;51.50;;;;;;6208945;28;20045;-74
2022/06/19 07:34:33;;;;;;;0.57;0.50;;;22.20;51.50;;;;;;6219958;28;20022;-74
2022/06/19 07:37:34;;;;;;;0.50;0.50;;;22.20;51.50;;;;;;6199229;28;20402;-74
2022/06/19 07:40:36;;;;;;;0.65;0.60;;;22.20;51.50;;;;;;6195409;28;20019;-74
2022/06/19 07:43:36;;;;;;;0.52;0.52;;;22.20;51.50;;;;;;6195102;28;20041;-74
2022/06/19 07:50:09;;;;;;;0.70;0.60;;;22.20;51.50;;;;;;6207497;28;20396;-74
2022/06/19 07:50:09;;;;;;;0.40;0.40;;;22.20;51.50;;;;;;6219873;28;20064;-74
2022/06/19 07:53:10;;;;;;;0.50;0.50;;;22.20;51.50;;;;;;6202042;28;20030;-74
2022/06/19 07:56:11;;;;;;;1.13;0.40;;;22.20;51.50;;;;;;6195396;28;20023;-74
2022/06/19 07:59:11;;;;;;;0.50;0.50;;;22.20;51.50;;;;;;6195242;28;20101;-74
2022/06/19 08:02:12;;;;;;;0.55;0.50;;;22.20;51.50;;;;;;6209473;28;20531;-74
2022/06/19 08:05:12;;;;;;;0.90;0.60;;;22.20;51.50;;;;;;6218843;28;20034;-74
2022/06/19 08:08:27;;;;;;;0.55;0.55;;;22.20;51.50;;;;;;6219187;28;20022;-74
2022/06/19 08:11:27;;;;;;;0.52;0.52;;;22.20;51.60;;;;;;6211973;28;20047;-74
2022/06/19 08:14:28;;;;;;;0.68;0.60;;;22.20;51.50;;;;;;6177339;28;20018;-74
2022/06/19 08:17:28;;;;;;;0.40;0.40;;;22.20;51.60;;;;;;6209265;28;20025;-74
2022/06/19 08:20:30;;;;;;;2.15;0.75;;;22.20;51.60;;;;;;6218969;28;20611;-74
2022/06/19 08:23:30;;;;;;;1.48;0.52;;;22.20;51.60;;;;;;6196396;28;20505;-76
2022/06/19 08:26:31;;;;;;;0.40;0.40;;;22.20;51.60;;;;;;6199881;28;20030;-73
2022/06/19 08:29:33;;;;;;;0.50;0.50;;;22.10;51.60;;;;;;6214090;28;20034;-76
2022/06/19 08:32:34;;;;;;;0.93;0.73;;;22.20;51.60;;;;;;6205429;28;20485;-74
2022/06/19 08:35:39;;;;;;;0.70;0.40;;;22.20;51.60;;;;;;6194124;28;20150;-74
2022/06/19 08:38:45;;;;;;;0.40;0.40;;;22.20;51.60;;;;;;6193871;28;20046;-74
2022/06/19 08:41:52;;;;;;;0.60;0.60;;;22.20;51.60;;;;;;6199457;28;20125;-75
2022/06/19 08:45:25;;;;;;;0.52;0.52;;;22.20;51.60;;;;;;6218013;28;20499;-74
2022/06/19 08:49:15;;;;;;;0.50;0.50;;;22.20;51.60;;;;;;6200196;28;20136;-74
2022/06/19 08:52:18;;;;;;;0.50;0.50;;;22.20;51.60;;;;;;6118504;29;20538;-74
2022/06/19 08:55:34;;;;;;;0.50;0.43;;;22.20;51.60;;;;;;6118818;29;20107;-75
2022/06/19 08:58:56;;;;;;;0.57;0.57;;;22.20;51.60;;;;;;6200355;28;20061;-74
2022/06/19 09:01:57;;;;;;;0.80;0.68;;;22.20;51.60;;;;;;6205315;28;20425;-74
2022/06/19 09:05:36;;;;;;;0.50;0.50;;;22.20;51.60;;;;;;6193573;28;20026;-74
2022/06/19 09:08:43;;;;;;;0.60;0.50;;;22.10;51.60;;;;;;6208581;28;20033;-74
2022/06/19 09:11:53;;;;;;;0.40;0.40;;;22.20;51.60;;;;;;6217276;28;20060;-74
2022/06/19 09:15:15;;;;;;;0.82;0.40;;;22.20;51.70;;;;;;6189704;28;20026;-73
2022/06/19 09:18:53;;;;;;;0.50;0.50;;;22.20;51.70;;;;;;6206166;28;20022;-74
2022/06/19 09:21:56;;;;;;;0.45;0.45;;;22.20;51.70;;;;;;6193666;28;20038;-74
2022/06/19 09:25:30;;;;;;;0.40;0.40;;;22.20;51.70;;;;;;6215004;28;20030;-74
2022/06/19 09:28:45;;;;;;;0.98;0.50;;;22.20;51.70;;;;;;6196976;28;20061;-74
2022/06/19 09:31:55;;;;;;;0.38;0.38;;;22.20;51.70;;;;;;6187048;28;20030;-74
2022/06/19 09:35:12;;;;;;;0.40;0.40;;;22.20;51.70;;;;;;6215767;28;20045;-74
2022/06/19 09:38:20;;;;;;;0.45;0.45;;;22.20;51.70;;;;;;6207375;28;20409;-74
2022/06/19 09:41:28;;;;;;;1.52;0.50;;;22.20;51.70;;;;;;6192682;28;20072;-74
2022/06/19 09:44:36;;;;;;;0.60;0.55;;;22.20;51.70;;;;;;6195873;28;20035;-74
2022/06/19 09:48:04;;;;;;;0.80;0.63;;;22.20;51.80;;;;;;6190937;28;20474;-74
2022/06/19 09:51:07;;;;;;;0.70;0.43;;;22.10;51.70;;;;;;6191159;28;20110;-74
2022/06/19 09:54:28;;;;;;;0.60;0.50;;;22.20;51.80;;;;;;6196736;28;20797;-74
2022/06/19 09:57:31;;;;;;;0.60;0.60;;;22.20;51.80;;;;;;6196846;28;20113;-74
2022/06/19 10:00:34;;;;;;;0.93;0.70;;;22.20;51.80;;;;;;6220171;28;20097;-74
2022/06/19 10:03:49;;;;;;;0.52;0.47;;;22.20;51.80;;;;;;6193255;28;20129;-74
2022/06/19 10:06:53;;;;;;;0.50;0.50;;;22.20;51.70;;;;;;6195234;28;20570;-74
2022/06/19 10:10:04;;;;;;;3.03;0.60;;;22.20;51.80;;;;;;6194001;28;20041;-74
2022/06/19 10:13:30;;;;;;;0.45;0.45;;;22.20;51.80;;;;;;6197897;28;20018;-72
2022/06/19 10:16:47;;;;;;;2.58;0.80;;;22.20;51.90;;;;;;6196411;28;20780;-73
2022/06/19 10:19:48;;;;;;;9.43;0.90;;;22.30;53.60;;;;;;6213778;28;20109;-73
2022/06/19 10:22:59;;;;;;;26.98;1.48;;;22.40;53.90;;;;;;6220365;28;20026;-72
2022/06/19 10:26:08;;;;;;;33.45;1.30;;;22.40;53.50;;;;;;6216040;28;20068;-71
2022/06/19 10:29:37;;;;;;;17.67;1.02;;;22.40;53.40;;;;;;6210825;28;20015;-72
2022/06/19 10:33:02;;;;;;;12.73;0.90;;;22.50;53.00;;;;;;6197116;28;20022;-71
2022/06/19 10:36:25;;;;;;;18.67;1.23;;;22.50;53.90;;;;;;6196686;28;20053;-73
2022/06/19 10:39:39;;;;;;;7.65;1.08;;;22.60;54.40;;;;;;6207718;28;20038;-72
2022/06/19 10:43:07;;;;;;;12.02;1.00;;;22.60;54.60;;;;;;6220768;28;20461;-72
2022/06/19 10:46:10;;;;;;;9.90;0.82;;;22.60;55.00;;;;;;6195686;28;20034;-71
2022/06/19 10:49:38;;;;;;;7.70;1.05;;;22.70;56.20;;;;;;6204454;28;20136;-72
2022/06/19 10:52:46;;;;;;;8.50;1.05;;;22.70;55.00;;;;;;6220984;28;20435;-72
2022/06/19 10:56:01;;;;;;;9.02;0.77;;;22.70;54.60;;;;;;6198662;28;20531;-73
2022/06/19 10:59:04;;;;;;;33.38;1.65;;;22.70;54.50;;;;;;6196276;28;20022;-74
2022/06/19 11:05:49;;;;;;;652.15;27.33;;;22.80;55.70;;;;;;6214495;28;20456;-75
2022/06/19 11:09:03;;;;;;;1593.50;79.15;;;22.80;56.30;;;;;;6217686;28;20050;-73
2022/06/19 11:12:15;;;;;;;638.83;33.47;;;22.80;56.10;;;;;;6179140;28;20049;-74
2022/06/19 11:15:29;;;;;;;294.17;16.02;;;22.80;57.40;;;;;;6210767;28;20022;-75
2022/06/19 11:18:45;;;;;;;292.63;15.80;;;22.70;57.50;;;;;;6220728;28;20026;-74
2022/06/19 11:21:46;;;;;;;194.38;10.82;;;22.70;55.90;;;;;;6196368;28;20018;-76
2022/06/19 11:24:47;;;;;;;126.85;8.95;;;22.80;55.40;;;;;;6205153;28;20030;-75
2022/06/19 11:28:21;;;;;;;102.25;7.13;;;22.70;54.80;;;;;;6217485;28;20030;-75
2022/06/19 11:31:29;;;;;;;94.18;8.27;;;22.80;55.90;;;;;;6187444;28;20595;-75
2022/06/19 11:34:43;;;;;;;127.60;8.50;;;22.90;55.50;;;;;;6196419;28;20022;-74
2022/06/19 11:38:02;;;;;;;956.55;50.63;;;22.90;56.90;;;;;;6195432;28;20482;-74
2022/06/19 11:41:20;;;;;;;170.27;10.65;;;22.90;57.90;;;;;;6210422;28;20125;-74
2022/06/19 11:44:21;;;;;;;111.50;9.00;;;22.80;55.00;;;;;;6216049;28;20022;-74
2022/06/19 11:47:32;;;;;;;114.15;9.38;;;22.80;54.90;;;;;;6193193;28;20029;-74
2022/06/19 11:50:33;;;;;;;157.02;10.43;;;22.80;54.80;;;;;;6204346;28;20022;-73
2022/06/19 11:53:41;;;;;;;145.80;11.23;;;22.70;55.10;;;;;;6207379;28;20065;-73
2022/06/19 11:56:42;;;;;;;101.15;8.02;;;22.70;54.80;;;;;;6212563;28;20026;-73
2022/06/19 11:59:47;;;;;;;88.10;7.40;;;22.70;54.50;;;;;;6214922;28;20029;-74
2022/06/19 12:02:54;;;;;;;89.25;8.27;;;22.70;54.40;;;;;;6193331;28;20392;-72
2022/06/19 12:06:02;;;;;;;85.55;7.90;;;22.60;54.30;;;;;;6204677;28;20038;-74
2022/06/19 12:09:06;;;;;;;63.33;6.65;;;22.60;54.10;;;;;;6216958;28;20495;-75
2022/06/19 12:12:13;;;;;;;49.67;7.30;;;22.60;54.40;;;;;;6196427;28;20030;-75
2022/06/19 12:15:13;;;;;;;46.63;5.65;;;22.60;54.40;;;;;;6206797;28;20380;-74
2022/06/19 12:18:17;;;;;;;54.72;6.32;;;22.60;54.20;;;;;;6217386;28;20026;-74
2022/06/19 12:21:25;;;;;;;52.83;6.30;;;22.60;54.30;;;;;;6206372;28;20054;-75
2022/06/19 12:24:53;;;;;;;50.63;6.68;;;22.60;54.30;;;;;;6217315;28;20026;-75
2022/06/19 12:28:28;;;;;;;49.08;6.40;;;22.60;54.30;;;;;;6192397;28;20038;-75
2022/06/19 12:31:34;;;;;;;46.33;5.72;;;22.60;54.30;;;;;;6204994;28;20025;-75
2022/06/19 12:34:42;;;;;;;37.40;4.80;;;22.50;54.10;;;;;;6201383;28;20053;-75
2022/06/19 12:37:42;;;;;;;39.50;5.13;;;22.50;54.10;;;;;;6191649;28;20133;-75
2022/06/19 12:41:05;;;;;;;36.13;5.03;;;22.50;54.00;;;;;;6197595;28;20037;-75
2022/06/19 12:44:26;;;;;;;23.90;4.32;;;22.50;54.00;;;;;;6216852;28;20061;-75
2022/06/19 12:48:00;;;;;;;35.35;4.50;;;22.50;54.00;;;;;;6197732;28;20037;-74
2022/06/19 12:51:56;;;;;;;19.10;3.72;;;22.50;53.90;;;;;;6197985;28;20096;-75
2022/06/19 12:55:11;;;;;;;27.83;4.20;;;22.50;54.10;;;;;;6162753;28;20124;-77
2022/06/19 12:58:36;;;;;;;23.13;3.50;;;22.50;53.80;;;;;;6215813;28;20026;-76
2022/06/19 13:02:02;;;;;;;28.10;4.30;;;22.50;53.70;;;;;;6206150;28;20468;-77
2022/06/19 13:05:47;;;;;;;23.35;4.07;;;22.50;53.80;;;;;;6192038;28;20417;-75
2022/06/19 13:09:26;;;;;;;21.45;3.88;;;22.50;53.80;;;;;;6181052;28;20049;-76
2022/06/19 13:12:56;;;;;;;24.13;4.10;;;22.50;53.80;;;;;;6113248;29;20027;-77
2022/06/19 13:16:01;;;;;;;19.67;3.65;;;22.50;53.80;;;;;;6113890;28;20458;-75
2022/06/19 13:19:18;;;;;;;14.13;3.42;;;22.40;53.80;;;;;;6215196;28;20105;-75
2022/06/19 13:22:34;;;;;;;15.07;3.28;;;22.40;52.00;;;;;;6201781;28;20113;-75
2022/06/19 13:25:46;;;;;;;12.05;3.15;;;22.50;51.90;;;;;;6172541;28;20030;-75
2022/06/19 13:28:55;;;;;;;18.00;3.15;;;22.70;50.30;;;;;;6191404;28;20508;-75
2022/06/19 13:32:13;;;;;;;13.60;2.97;;;22.80;49.90;;;;;;6191195;28;20057;-75
2022/06/19 13:35:50;;;;;;;12.07;2.80;;;22.90;49.40;;;;;;6191779;28;20072;-75
2022/06/19 13:39:05;;;;;;;12.45;2.72;;;23.10;49.00;;;;;;6214074;28;20100;-75
2022/06/19 13:42:36;;;;;;;12.02;2.78;;;23.10;48.60;;;;;;6207435;28;20018;-75
2022/06/19 13:46:00;;;;;;;9.25;2.35;;;23.20;48.50;;;;;;6191317;28;20071;-76
2022/06/19 13:49:08;;;;;;;9.60;2.97;;;23.20;48.30;;;;;;6203902;28;20457;-75
2022/06/19 13:52:39;;;;;;;8.25;2.20;;;23.20;48.20;;;;;;6200945;28;20504;-75
2022/06/19 13:56:24;;;;;;;6.95;2.53;;;23.30;48.10;;;;;;6191277;28;20059;-75
2022/06/19 13:59:46;;;;;;;5.18;1.83;;;23.30;48.00;;;;;;6168037;28;20038;-75
2022/06/19 14:03:20;;;;;;;10.80;2.38;;;23.30;47.90;;;;;;6191157;28;20098;-77
2022/06/19 14:06:30;;;;;;;8.73;2.13;;;23.30;47.70;;;;;;6191090;28;20044;-76
2022/06/19 14:09:40;;;;;;;6.45;2.10;;;23.30;47.50;;;;;;6191319;28;20473;-75
2022/06/19 14:13:03;;;;;;;6.95;1.90;;;23.30;47.50;;;;;;6190965;28;20019;-75
2022/06/19 14:16:06;;;;;;;4.60;2.05;;;23.30;47.30;;;;;;6210466;28;20109;-75
2022/06/19 14:19:39;;;;;;;6.80;2.13;;;23.40;47.40;;;;;;6214702;28;20030;-76
2022/06/19 14:22:46;;;;;;;7.45;1.58;;;23.30;47.20;;;;;;6207122;28;20121;-76
2022/06/19 14:26:36;;;;;;;5.60;1.88;;;23.30;47.00;;;;;;6207120;28;20034;-75
2022/06/19 14:29:49;;;;;;;8.38;2.10;;;23.30;46.90;;;;;;6189457;28;20030;-75
2022/06/19 14:32:56;;;;;;;5.70;1.65;;;23.30;46.90;;;;;;6214136;28;20018;-75
2022/06/19 14:36:24;;;;;;;5.47;1.55;;;23.30;46.90;;;;;;6217161;28;20030;-75
2022/06/19 14:39:25;;;;;;;5.10;1.80;;;23.40;46.80;;;;;;6179804;28;20073;-75
2022/06/19 14:42:26;;;;;;;4.25;1.58;;;23.40;46.70;;;;;;6197250;28;20392;-73
2022/06/19 14:45:47;;;;;;;14.90;1.90;;;23.40;46.70;;;;;;6219034;28;20518;-73
2022/06/19 14:49:16;;;;;;;9.50;1.80;;;23.40;46.50;;;;;;6205693;28;20130;-72
2022/06/19 14:52:28;;;;;;;39.83;3.33;;;23.60;47.10;;;;;;6177574;28;20030;-75
2022/06/19 14:55:40;;;;;;;96.10;5.88;;;23.50;48.10;;;;;;6194403;28;20027;-73
2022/06/19 14:58:44;;;;;;;51.53;3.63;;;23.50;46.90;;;;;;6205909;28;20046;-74
2022/06/19 15:01:50;;;;;;;40.40;4.50;;;23.50;47.10;;;;;;6218612;28;20025;-74
2022/06/19 15:05:05;;;;;;;42.50;3.47;;;23.50;47.10;;;;;;6198286;28;20072;-74
2022/06/19 15:08:25;;;;;;;29.77;3.67;;;23.50;47.00;;;;;;6198226;28;20444;-74
2022/06/19 15:11:32;;;;;;;25.38;3.03;;;23.50;46.80;;;;;;6218503;28;20134;-75
2022/06/19 15:14:34;;;;;;;21.23;2.85;;;23.50;46.90;;;;;;6207552;28;20022;-75
2022/06/19 15:17:43;;;;;;;19.20;2.88;;;23.50;46.80;;;;;;6200347;28;20040;-74
2022/06/19 15:21:08;;;;;;;19.30;2.40;;;23.50;46.60;;;;;;6193818;28;20025;-74
2022/06/19 15:24:17;;;;;;;19.55;2.83;;;23.50;46.50;;;;;;6196589;28;20468;-74
2022/06/19 15:27:24;;;;;;;43.28;3.58;;;23.50;46.20;;;;;;6190475;28;20038;-73
2022/06/19 15:30:32;;;;;;;64.97;4.47;;;23.50;46.70;;;;;;6195205;28;20117;-73
2022/06/19 15:33:53;;;;;;;36.40;3.80;;;23.60;46.70;;;;;;6209934;28;20452;-73
2022/06/19 15:36:54;;;;;;;40.42;4.20;;;23.50;46.80;;;;;;6192681;28;20050;-73
2022/06/19 15:40:13;;;;;;;38.25;3.78;;;23.50;46.80;;;;;;6192912;28;20045;-73
2022/06/19 15:43:17;;;;;;;21.60;3.10;;;23.50;46.70;;;;;;6194212;28;20030;-74
2022/06/19 15:46:19;;;;;;;23.75;2.97;;;23.50;46.60;;;;;;6217131;28;20065;-73
2022/06/19 15:49:20;;;;;;;15.27;2.70;;;23.50;46.60;;;;;;6207372;28;20491;-74
2022/06/19 15:52:44;;;;;;;13.77;2.17;;;23.50;46.60;;;;;;6186376;28;20027;-73
2022/06/19 15:56:02;;;;;;;10.18;2.45;;;23.50;46.50;;;;;;6197091;28;20023;-73
2022/06/19 15:59:10;;;;;;;19.20;2.22;;;23.50;46.40;;;;;;6198299;28;20080;-73
2022/06/19 16:02:20;;;;;;;16.65;2.63;;;23.50;46.40;;;;;;6199950;28;20120;-73
2022/06/19 16:05:30;;;;;;;14.60;2.58;;;23.50;46.50;;;;;;6216841;28;20061;-76
2022/06/19 16:08:32;;;;;;;10.50;2.10;;;23.50;46.30;;;;;;6216733;28;20025;-74
2022/06/19 16:11:36;;;;;;;7.10;1.73;;;23.50;46.40;;;;;;6192890;28;20026;-73
2022/06/19 16:14:38;;;;;;;9.07;1.95;;;23.40;46.20;;;;;;6201345;28;20128;-74
2022/06/19 16:17:38;;;;;;;9.13;2.03;;;23.50;46.30;;;;;;6216606;28;20105;-76